DLH3FE EDDH-EKBI
Flight info
| Callsign | DLH3FE |
|---|---|
| Flight time | 0h 33m |
| Altitude | 24000 |
| Route | SOKWO1G/33 SOKWO T814 EXNEL/N0376F230 M105 AMRAK DCT LOKSA |
| Aircraft | B738/M-SDE2E3FGHIRWXY/LB1 |
Departure
| Time | 2026-04-30 18:18 |
|---|---|
| Airport | Hamburg Helmut Schmidt Airport (EDDH) |
Arrival
| Time | 2026-04-30 18:51 |
|---|---|
| Airport | Billund Airport (EKBI) |
| Time | Latitude | Longitude | Altitude | Speed | Heading |
|---|---|---|---|---|---|
| 2026-04-30 17:44 | 53.63076 | 10.00381 | 62 ft | 0 kts | 93° |
| 2026-04-30 18:05 | 53.63081 | 10.00298 | 62 ft | 2 kts | 119° |
| 2026-04-30 18:06 | 53.63121 | 10.00259 | 62 ft | 0 kts | 176° |
| 2026-04-30 18:10 | 53.62980 | 10.00166 | 62 ft | 13 kts | 213° |
| 2026-04-30 18:11 | 53.62844 | 9.99956 | 62 ft | 0 kts | 241° |
| 2026-04-30 18:15 | 53.62810 | 9.99795 | 62 ft | 5 kts | 313° |
| 2026-04-30 18:15 | 53.62823 | 9.99781 | 62 ft | 0 kts | 332° |
| 2026-04-30 18:16 | 53.62828 | 9.99777 | 62 ft | 0 kts | 332° |
| 2026-04-30 18:16 | 53.62833 | 9.99773 | 62 ft | 0 kts | 332° |
| 2026-04-30 18:17 | 53.62835 | 9.99771 | 62 ft | 0 kts | 332° |
| 2026-04-30 18:17 | 53.62838 | 9.99768 | 62 ft | 0 kts | 332° |
| 2026-04-30 18:17 | 53.62997 | 9.99632 | 62 ft | 55 kts | 333° |
| 2026-04-30 18:18 | 53.63531 | 9.99169 | 63 ft | 115 kts | 333° |
| 2026-04-30 18:18 | 53.64388 | 9.98430 | 67 ft | 160 kts | 334° |
| 2026-04-30 18:18 | 53.65391 | 9.97555 | 512 ft | 165 kts | 334° |
| 2026-04-30 18:18 | 53.66446 | 9.96624 | 928 ft | 178 kts | 334° |
| 2026-04-30 18:19 | 53.67594 | 9.95628 | 1282 ft | 198 kts | 334° |
| 2026-04-30 18:19 | 53.68883 | 9.94601 | 1717 ft | 215 kts | 345° |
| 2026-04-30 18:19 | 53.70385 | 9.94430 | 2280 ft | 226 kts | 8° |
| 2026-04-30 18:19 | 53.71986 | 9.94642 | 3001 ft | 233 kts | 4° |
| 2026-04-30 18:20 | 53.73564 | 9.94822 | 3849 ft | 231 kts | 16° |
| 2026-04-30 18:20 | 53.75032 | 9.95967 | 4330 ft | 244 kts | 38° |
| 2026-04-30 18:20 | 53.76448 | 9.97725 | 4730 ft | 265 kts | 38° |
| 2026-04-30 18:20 | 53.77995 | 9.99532 | 5423 ft | 273 kts | 36° |
| 2026-04-30 18:21 | 53.79573 | 10.01275 | 6202 ft | 277 kts | 36° |
| 2026-04-30 18:21 | 53.81215 | 10.03107 | 6770 ft | 290 kts | 36° |
| 2026-04-30 18:21 | 53.82941 | 10.04840 | 7612 ft | 293 kts | 22° |
| 2026-04-30 18:21 | 53.84945 | 10.05255 | 8445 ft | 297 kts | 348° |
| 2026-04-30 18:22 | 53.86878 | 10.04197 | 9182 ft | 301 kts | 336° |
| 2026-04-30 18:22 | 53.90960 | 10.02370 | 10868 ft | 310 kts | 346° |
| 2026-04-30 18:22 | 53.93131 | 10.01675 | 11162 ft | 332 kts | 347° |
| 2026-04-30 18:23 | 53.95349 | 10.00996 | 11621 ft | 317 kts | 347° |
| 2026-04-30 18:23 | 53.97513 | 10.00347 | 12125 ft | 316 kts | 346° |
| 2026-04-30 18:23 | 53.99678 | 9.99699 | 12627 ft | 320 kts | 346° |
| 2026-04-30 18:23 | 54.01888 | 9.99043 | 13132 ft | 325 kts | 346° |
| 2026-04-30 18:24 | 54.06372 | 9.97722 | 14135 ft | 333 kts | 346° |
| 2026-04-30 18:24 | 54.08653 | 9.97052 | 14636 ft | 336 kts | 346° |
| 2026-04-30 18:24 | 54.10961 | 9.96373 | 15138 ft | 338 kts | 345° |
| 2026-04-30 18:25 | 54.13253 | 9.95699 | 15633 ft | 339 kts | 345° |
| 2026-04-30 18:25 | 54.17876 | 9.94393 | 16627 ft | 333 kts | 346° |
| 2026-04-30 18:25 | 54.20197 | 9.93887 | 17102 ft | 336 kts | 348° |
| 2026-04-30 18:26 | 54.24965 | 9.92538 | 17470 ft | 363 kts | 342° |
| 2026-04-30 18:26 | 54.27501 | 9.91634 | 17458 ft | 378 kts | 343° |
| 2026-04-30 18:26 | 54.30088 | 9.90808 | 17450 ft | 381 kts | 344° |
| 2026-04-30 18:27 | 54.35297 | 9.89215 | 17451 ft | 380 kts | 345° |
| 2026-04-30 18:27 | 54.37904 | 9.88427 | 17450 ft | 380 kts | 345° |
| 2026-04-30 18:28 | 54.43095 | 9.86868 | 17451 ft | 381 kts | 345° |
| 2026-04-30 18:28 | 54.45689 | 9.86092 | 17452 ft | 381 kts | 345° |
| 2026-04-30 18:28 | 54.50888 | 9.84536 | 17452 ft | 381 kts | 345° |
| 2026-04-30 18:29 | 54.53478 | 9.83759 | 17452 ft | 381 kts | 345° |
| 2026-04-30 18:29 | 54.61283 | 9.81416 | 17452 ft | 381 kts | 345° |
| 2026-04-30 18:30 | 54.66509 | 9.79841 | 17157 ft | 381 kts | 345° |
| 2026-04-30 18:30 | 54.71686 | 9.78279 | 16861 ft | 382 kts | 345° |
| 2026-04-30 18:31 | 54.74337 | 9.77471 | 16718 ft | 390 kts | 345° |
| 2026-04-30 18:31 | 54.79695 | 9.75850 | 16425 ft | 389 kts | 346° |
| 2026-04-30 18:32 | 54.85004 | 9.74333 | 16124 ft | 388 kts | 347° |
| 2026-04-30 18:32 | 54.87652 | 9.73689 | 15973 ft | 388 kts | 348° |
| 2026-04-30 18:32 | 54.92963 | 9.72371 | 15673 ft | 385 kts | 348° |
| 2026-04-30 18:33 | 54.95612 | 9.71709 | 15522 ft | 384 kts | 348° |
| 2026-04-30 18:33 | 55.00867 | 9.70391 | 15222 ft | 381 kts | 348° |
| 2026-04-30 18:33 | 55.03494 | 9.69730 | 15071 ft | 380 kts | 348° |
| 2026-04-30 18:34 | 55.06102 | 9.69073 | 14920 ft | 379 kts | 348° |
| 2026-04-30 18:34 | 55.11287 | 9.67762 | 14620 ft | 378 kts | 348° |
| 2026-04-30 18:34 | 55.13897 | 9.67100 | 14469 ft | 377 kts | 348° |
| 2026-04-30 18:35 | 55.16454 | 9.66451 | 14321 ft | 376 kts | 348° |
| 2026-04-30 18:35 | 55.19036 | 9.65794 | 14170 ft | 375 kts | 348° |
| 2026-04-30 18:35 | 55.21627 | 9.65134 | 13971 ft | 376 kts | 349° |
| 2026-04-30 18:36 | 55.26674 | 9.63848 | 13008 ft | 364 kts | 349° |
| 2026-04-30 18:36 | 55.29159 | 9.63214 | 12702 ft | 350 kts | 349° |
| 2026-04-30 18:36 | 55.33661 | 9.62070 | 12068 ft | 312 kts | 349° |
| 2026-04-30 18:37 | 55.35769 | 9.61497 | 11462 ft | 304 kts | 344° |
| 2026-04-30 18:37 | 55.37677 | 9.60141 | 10812 ft | 292 kts | 322° |
| 2026-04-30 18:37 | 55.39183 | 9.57869 | 10215 ft | 282 kts | 313° |
| 2026-04-30 18:37 | 55.40568 | 9.55554 | 10115 ft | 276 kts | 313° |
| 2026-04-30 18:38 | 55.41997 | 9.53175 | 9875 ft | 286 kts | 312° |
| 2026-04-30 18:38 | 55.43335 | 9.50689 | 9608 ft | 282 kts | 309° |
| 2026-04-30 18:38 | 55.44645 | 9.48169 | 9342 ft | 279 kts | 310° |
| 2026-04-30 18:38 | 55.45980 | 9.45680 | 9069 ft | 278 kts | 310° |
| 2026-04-30 18:39 | 55.47308 | 9.43206 | 8797 ft | 277 kts | 310° |
| 2026-04-30 18:39 | 55.48619 | 9.40752 | 8551 ft | 275 kts | 310° |
| 2026-04-30 18:39 | 55.49916 | 9.38321 | 8303 ft | 274 kts | 310° |
| 2026-04-30 18:39 | 55.51218 | 9.35874 | 8052 ft | 273 kts | 310° |
| 2026-04-30 18:40 | 55.52512 | 9.33434 | 7801 ft | 272 kts | 310° |
| 2026-04-30 18:40 | 55.53798 | 9.31011 | 7553 ft | 271 kts | 311° |
| 2026-04-30 18:40 | 55.55324 | 9.29099 | 7331 ft | 274 kts | 335° |
| 2026-04-30 18:40 | 55.57203 | 9.28519 | 7035 ft | 280 kts | 1° |
| 2026-04-30 18:41 | 55.59077 | 9.29506 | 6707 ft | 283 kts | 28° |
| 2026-04-30 18:41 | 55.60495 | 9.31833 | 6404 ft | 284 kts | 56° |
| 2026-04-30 18:41 | 55.61269 | 9.35016 | 6194 ft | 283 kts | 72° |
| 2026-04-30 18:41 | 55.61835 | 9.38377 | 5971 ft | 283 kts | 72° |
| 2026-04-30 18:42 | 55.62429 | 9.41688 | 5743 ft | 282 kts | 71° |
| 2026-04-30 18:42 | 55.63611 | 9.48274 | 5290 ft | 280 kts | 71° |
| 2026-04-30 18:42 | 55.64193 | 9.51517 | 5067 ft | 279 kts | 71° |
| 2026-04-30 18:45 | 55.73853 | 9.64731 | 2997 ft | 217 kts | 293° |
| 2026-04-30 18:45 | 55.74443 | 9.62293 | 2985 ft | 210 kts | 291° |
| 2026-04-30 18:45 | 55.74916 | 9.59938 | 2976 ft | 197 kts | 282° |
| 2026-04-30 18:46 | 55.75014 | 9.57547 | 2999 ft | 196 kts | 271° |
| 2026-04-30 18:46 | 55.75092 | 9.55108 | 2997 ft | 197 kts | 273° |
| 2026-04-30 18:46 | 55.75088 | 9.52668 | 2993 ft | 197 kts | 269° |
| 2026-04-30 18:46 | 55.75038 | 9.50246 | 2993 ft | 197 kts | 268° |
| 2026-04-30 18:47 | 55.74975 | 9.47833 | 2993 ft | 191 kts | 268° |
| 2026-04-30 18:47 | 55.74913 | 9.45587 | 2989 ft | 176 kts | 268° |
| 2026-04-30 18:47 | 55.74853 | 9.43422 | 2992 ft | 176 kts | 268° |
| 2026-04-30 18:47 | 55.74791 | 9.41222 | 2826 ft | 180 kts | 268° |
| 2026-04-30 18:48 | 55.74725 | 9.39009 | 2582 ft | 178 kts | 268° |
| 2026-04-30 18:48 | 55.74663 | 9.36832 | 2328 ft | 175 kts | 268° |
| 2026-04-30 18:48 | 55.74597 | 9.34721 | 2138 ft | 170 kts | 268° |
| 2026-04-30 18:48 | 55.74532 | 9.32695 | 1889 ft | 156 kts | 267° |
| 2026-04-30 18:49 | 55.74466 | 9.30887 | 1621 ft | 138 kts | 268° |
| 2026-04-30 18:49 | 55.74425 | 9.29206 | 1519 ft | 139 kts | 269° |
| 2026-04-30 18:49 | 55.74384 | 9.27457 | 1369 ft | 138 kts | 269° |
| 2026-04-30 18:49 | 55.74338 | 9.25769 | 1135 ft | 143 kts | 268° |
| 2026-04-30 18:50 | 55.74281 | 9.23996 | 938 ft | 139 kts | 268° |
| 2026-04-30 18:50 | 55.74240 | 9.22300 | 728 ft | 139 kts | 269° |
| 2026-04-30 18:50 | 55.74194 | 9.20595 | 556 ft | 139 kts | 268° |
| 2026-04-30 18:50 | 55.74139 | 9.18873 | 382 ft | 139 kts | 268° |
| 2026-04-30 18:51 | 55.74092 | 9.17195 | 245 ft | 130 kts | 267° |
| 2026-04-30 18:51 | 55.74056 | 9.15973 | 230 ft | 69 kts | 267° |
| 2026-04-30 18:51 | 55.74034 | 9.15209 | 229 ft | 55 kts | 266° |
| 2026-04-30 18:51 | 55.74015 | 9.14621 | 226 ft | 27 kts | 266° |
| 2026-04-30 18:52 | 55.74063 | 9.14494 | 227 ft | 10 kts | 354° |
| 2026-04-30 18:52 | 55.74134 | 9.14488 | 229 ft | 10 kts | 357° |
| 2026-04-30 18:52 | 55.74205 | 9.14483 | 230 ft | 9 kts | 357° |
| 2026-04-30 18:52 | 55.74262 | 9.14476 | 231 ft | 6 kts | 355° |
| 2026-04-30 18:53 | 55.74301 | 9.14471 | 232 ft | 4 kts | 356° |
| 2026-04-30 18:53 | 55.74330 | 9.14469 | 233 ft | 3 kts | 356° |
| 2026-04-30 18:53 | 55.74369 | 9.14465 | 235 ft | 7 kts | 356° |
| 2026-04-30 18:53 | 55.74423 | 9.14484 | 238 ft | 8 kts | 47° |
| 2026-04-30 18:54 | 55.74440 | 9.14589 | 239 ft | 10 kts | 86° |
| 2026-04-30 18:54 | 55.74444 | 9.14716 | 238 ft | 7 kts | 86° |
| 2026-04-30 18:54 | 55.74464 | 9.14750 | 238 ft | 3 kts | 9° |
| 2026-04-30 18:54 | 55.74484 | 9.14749 | 239 ft | 2 kts | 354° |
| 2026-04-30 18:55 | 55.74505 | 9.14746 | 239 ft | 2 kts | 356° |
| 2026-04-30 18:55 | 55.74529 | 9.14743 | 240 ft | 0 kts | 357° |